Terminal Aerodrome Forecast
Issued by NWS Missoula, MT

Home | Current Version | Previous Version | Text Only | Print | Product List | Glossary On
Versions: 1 2 3 4 5 6 7 8 9 10 11 12 13 14
000
FTUS45 KMSO 200336 AAA
TAFGPI
TAF AMD
KGPI 200336Z 2004/2024 VRB04KT P6SM VCSH SCT050
     FM200500 VRB05KT P6SM VCSH OVC050
     FM201200 VRB04KT 5SM BR SCT015 BKN022=

USA.gov is the U.S. government's official web portal to all federal, state and local government web resources and services.